Time;durP1;ratioP1;P1;durP2;ratioP2;P2;SDS_P1;SDS_P2;PMS_P1;PMS_P2;Temp;Humidity;BMP_temperature;BMP_pressure;BME280_temperature;BME280_humidity;BME280_pressure;Samples;Min_cycle;Max_cycle;Signal;HPM_P1;HPM_P2
2023/10/06 00:00:50;;;;;;;5.70;2.83;;;7.80;99.90;;;;;;6204513;28;20054;-81
2023/10/06 00:03:57;;;;;;;5.10;2.97;;;7.80;99.90;;;;;;6205887;28;20459;-80
2023/10/06 00:07:06;;;;;;;11.73;3.85;;;7.80;99.90;;;;;;6228021;28;20133;-79
2023/10/06 00:10:21;;;;;;;5.22;2.80;;;7.70;99.90;;;;;;6224338;28;20188;-79
2023/10/06 00:13:29;;;;;;;3.60;2.67;;;7.60;99.90;;;;;;6203522;28;20053;-81
2023/10/06 00:16:38;;;;;;;6.57;3.05;;;7.60;99.90;;;;;;6203100;28;20060;-79
2023/10/06 00:19:41;;;;;;;5.03;3.08;;;7.50;99.90;;;;;;6220721;28;20054;-80
2023/10/06 00:22:44;;;;;;;8.13;2.95;;;7.40;99.90;;;;;;6203678;28;20594;-79
2023/10/06 00:25:46;;;;;;;6.00;3.03;;;7.40;99.90;;;;;;6203048;28;20049;-81
2023/10/06 00:28:48;;;;;;;3.80;2.40;;;7.40;99.90;;;;;;6204602;28;20419;-80
2023/10/06 00:31:50;;;;;;;5.63;3.25;;;7.30;99.90;;;;;;6204140;28;20106;-82
2023/10/06 00:34:54;;;;;;;6.63;3.53;;;7.30;99.90;;;;;;6204958;28;20044;-80
2023/10/06 00:38:10;;;;;;;5.22;3.10;;;7.30;99.90;;;;;;6227341;28;20092;-79
2023/10/06 00:41:14;;;;;;;4.47;2.75;;;7.20;99.90;;;;;;6227272;28;20200;-81
2023/10/06 00:44:21;;;;;;;6.50;2.90;;;7.20;99.90;;;;;;6206156;28;20054;-81
2023/10/06 00:47:23;;;;;;;6.15;3.15;;;7.20;99.90;;;;;;6202527;28;20058;-81
2023/10/06 00:50:25;;;;;;;8.07;3.10;;;7.10;99.90;;;;;;6199349;28;20106;-80
2023/10/06 00:53:32;;;;;;;8.55;2.90;;;7.10;99.90;;;;;;6202159;28;20053;-79
2023/10/06 00:56:34;;;;;;;5.57;3.50;;;7.00;99.90;;;;;;6209918;28;20057;-80
2023/10/06 00:59:36;;;;;;;4.93;2.88;;;6.90;99.90;;;;;;6225992;28;20459;-80
2023/10/06 01:02:39;;;;;;;5.60;3.22;;;6.90;99.90;;;;;;6227285;28;20125;-81
2023/10/06 01:05:44;;;;;;;5.93;3.05;;;6.90;99.90;;;;;;6225934;28;20065;-79
2023/10/06 01:08:52;;;;;;;6.93;2.88;;;6.90;99.90;;;;;;6219434;28;20054;-81
2023/10/06 01:11:55;;;;;;;;;;;6.80;99.90;;;;;;6202875;28;20089;-79
2023/10/06 01:15:05;;;;;;;9.20;3.35;;;6.80;99.90;;;;;;6202378;28;19933;-79
2023/10/06 01:18:08;;;;;;;8.00;2.55;;;6.80;99.90;;;;;;6203328;28;20061;-80
2023/10/06 01:21:17;;;;;;;11.63;2.53;;;6.70;99.90;;;;;;6203460;28;20046;-79
2023/10/06 01:24:24;;;;;;;4.55;3.13;;;6.70;99.90;;;;;;6203741;28;20337;-79
2023/10/06 01:27:26;;;;;;;3.13;2.70;;;6.60;99.90;;;;;;6202420;28;20129;-80
2023/10/06 01:30:28;;;;;;;5.80;3.20;;;6.60;99.90;;;;;;6203723;28;20046;-80
2023/10/06 01:33:30;;;;;;;7.07;3.03;;;6.50;99.90;;;;;;6203995;28;20046;-81
2023/10/06 01:36:33;;;;;;;6.15;3.22;;;6.50;99.90;;;;;;6208778;28;20491;-80
2023/10/06 01:39:37;;;;;;;6.65;3.00;;;6.50;99.90;;;;;;6209077;28;20053;-81
2023/10/06 01:42:39;;;;;;;3.65;2.78;;;6.50;99.90;;;;;;6209449;28;20046;-81
2023/10/06 01:45:43;;;;;;;2.78;2.47;;;6.50;99.90;;;;;;6208567;28;20066;-79
2023/10/06 01:48:46;;;;;;;6.20;3.65;;;6.50;99.90;;;;;;6224892;28;20054;-80
2023/10/06 01:51:50;;;;;;;4.68;2.97;;;6.50;99.90;;;;;;6232413;28;20101;-79
2023/10/06 01:54:57;;;;;;;4.82;3.30;;;6.40;99.90;;;;;;6233006;28;20049;-79
2023/10/06 01:58:02;;;;;;;4.50;2.55;;;6.40;99.90;;;;;;6233402;28;20052;-79
2023/10/06 02:01:06;;;;;;;4.65;1.90;;;6.30;99.90;;;;;;6223251;28;20519;-80
2023/10/06 02:04:10;;;;;;;3.03;2.40;;;6.20;99.90;;;;;;6207825;28;21227;-82
2023/10/06 02:07:12;;;;;;;5.45;3.08;;;6.20;99.90;;;;;;6206900;28;20108;-81
2023/10/06 02:10:18;;;;;;;3.55;2.25;;;6.10;99.90;;;;;;6206813;28;20048;-80
2023/10/06 02:13:21;;;;;;;4.63;3.40;;;6.10;99.90;;;;;;6206199;28;20062;-81
2023/10/06 02:16:26;;;;;;;9.85;4.63;;;6.10;99.90;;;;;;6205980;28;20054;-81
2023/10/06 02:19:28;;;;;;;6.05;2.85;;;6.20;99.90;;;;;;6219375;28;20048;-81
2023/10/06 02:22:30;;;;;;;5.40;2.88;;;6.20;99.90;;;;;;6230630;28;20046;-81
2023/10/06 02:25:33;;;;;;;4.38;3.03;;;6.20;99.90;;;;;;6230699;28;20046;-81
2023/10/06 02:28:36;;;;;;;8.68;3.00;;;6.10;99.90;;;;;;6230442;28;20058;-81
2023/10/06 02:31:41;;;;;;;4.60;2.58;;;6.10;99.90;;;;;;6230073;28;20053;-80
2023/10/06 02:34:45;;;;;;;6.43;3.55;;;6.10;99.90;;;;;;6229496;28;20050;-80
2023/10/06 02:37:47;;;;;;;6.50;3.25;;;6.10;99.90;;;;;;6229732;28;20042;-82
2023/10/06 02:40:50;;;;;;;4.45;3.08;;;6.10;99.90;;;;;;6230719;28;20116;-80
2023/10/06 02:43:52;;;;;;;4.57;3.35;;;6.10;99.90;;;;;;6197929;28;20129;-81
2023/10/06 02:46:55;;;;;;;10.10;3.55;;;6.10;99.90;;;;;;6207566;28;20050;-82
2023/10/06 02:49:59;;;;;;;6.65;3.42;;;6.10;99.90;;;;;;6231812;28;20057;-80
2023/10/06 02:53:01;;;;;;;8.98;2.97;;;6.10;99.90;;;;;;6221974;28;20046;-81
2023/10/06 02:56:08;;;;;;;5.88;3.10;;;6.00;99.90;;;;;;6214059;28;20074;-80
2023/10/06 02:59:20;;;;;;;6.65;3.53;;;6.10;99.90;;;;;;6205749;28;20050;-79
2023/10/06 03:02:25;;;;;;;8.60;2.78;;;6.10;99.90;;;;;;6206466;28;20042;-81
2023/10/06 03:05:32;;;;;;;2.75;2.55;;;6.00;99.90;;;;;;6210642;28;20056;-80
2023/10/06 03:08:35;;;;;;;4.55;2.67;;;6.00;99.90;;;;;;6215767;28;20089;-79
2023/10/06 03:11:39;;;;;;;6.80;2.58;;;6.00;99.90;;;;;;6205003;28;20508;-80
2023/10/06 03:14:40;;;;;;;2.95;2.22;;;6.00;99.90;;;;;;6204026;28;20136;-81
2023/10/06 03:17:42;;;;;;;4.57;2.55;;;6.00;99.90;;;;;;6205932;28;20042;-80
2023/10/06 03:20:48;;;;;;;4.07;2.97;;;6.10;99.90;;;;;;6208132;28;20141;-80
2023/10/06 03:23:57;;;;;;;5.22;3.10;;;6.20;99.90;;;;;;6207150;28;20042;-80
2023/10/06 03:27:04;;;;;;;9.88;2.58;;;6.30;99.90;;;;;;6206404;28;20054;-81
2023/10/06 03:30:17;;;;;;;6.93;3.00;;;6.30;99.90;;;;;;6207007;28;20110;-81
2023/10/06 03:33:20;;;;;;;4.78;3.60;;;6.40;99.90;;;;;;6218945;28;20213;-81
2023/10/06 03:36:26;;;;;;;5.32;3.42;;;6.50;99.90;;;;;;6232563;28;20492;-82
2023/10/06 03:39:30;;;;;;;8.43;2.85;;;6.60;99.90;;;;;;6231374;28;20046;-81
2023/10/06 03:42:37;;;;;;;6.10;3.50;;;6.70;99.90;;;;;;6231071;28;20102;-80
2023/10/06 03:45:40;;;;;;;3.45;3.10;;;6.70;99.90;;;;;;6231163;28;20088;-80
2023/10/06 03:48:42;;;;;;;5.63;3.28;;;6.80;99.90;;;;;;6233361;28;20181;-81
2023/10/06 03:51:44;;;;;;;4.43;2.95;;;6.90;99.90;;;;;;6230866;28;20124;-82
2023/10/06 03:54:48;;;;;;;4.90;3.10;;;7.00;99.90;;;;;;6229119;28;20049;-80
2023/10/06 03:57:52;;;;;;;3.85;2.58;;;7.10;99.90;;;;;;6228210;28;20042;-79
2023/10/06 04:00:54;;;;;;;6.05;3.50;;;7.20;99.90;;;;;;6229048;28;20054;-80
2023/10/06 04:03:58;;;;;;;7.20;2.70;;;7.30;99.90;;;;;;6229050;28;20483;-80
2023/10/06 04:07:00;;;;;;;7.45;2.60;;;7.40;99.90;;;;;;6231092;28;20042;-82
2023/10/06 04:10:07;;;;;;;5.95;2.92;;;7.50;99.90;;;;;;6234646;28;20038;-80
2023/10/06 04:13:10;;;;;;;15.40;4.30;;;7.60;99.90;;;;;;6211873;28;20046;-81
2023/10/06 04:16:14;;;;;;;8.75;3.28;;;7.60;99.90;;;;;;6209363;28;20223;-80
2023/10/06 04:19:16;;;;;;;15.10;4.97;;;7.70;99.90;;;;;;6213055;28;20431;-81
2023/10/06 04:22:18;;;;;;;13.82;4.70;;;7.70;99.90;;;;;;6230722;28;20057;-81
2023/10/06 04:25:21;;;;;;;9.40;3.63;;;7.80;99.90;;;;;;6228208;28;20056;-80
2023/10/06 04:28:25;;;;;;;15.07;4.10;;;7.70;99.90;;;;;;6228820;28;20053;-81
2023/10/06 04:31:27;;;;;;;8.20;4.30;;;7.70;99.90;;;;;;6226933;28;20057;-81
2023/10/06 04:34:36;;;;;;;10.85;3.45;;;7.70;99.90;;;;;;6227560;28;20046;-81
2023/10/06 04:37:38;;;;;;;4.70;3.38;;;7.70;99.90;;;;;;6228664;28;20065;-80
2023/10/06 04:40:40;;;;;;;7.32;3.55;;;7.60;99.90;;;;;;6227945;28;20507;-81
2023/10/06 04:43:44;;;;;;;5.65;3.72;;;7.50;99.90;;;;;;6226315;28;20172;-79
2023/10/06 04:46:45;;;;;;;6.93;3.35;;;7.50;99.90;;;;;;6246523;23;20062;-76
2023/10/06 04:49:47;;;;;;;5.30;3.38;;;7.40;99.90;;;;;;6200582;28;20041;-76
2023/10/06 04:52:49;;;;;;;4.13;2.15;;;7.30;99.90;;;;;;6197558;28;20197;-76
2023/10/06 04:55:51;;;;;;;6.43;3.40;;;7.30;99.90;;;;;;6195858;28;20407;-76
2023/10/06 04:58:54;;;;;;;7.30;2.72;;;7.20;99.90;;;;;;6173949;28;20133;-76
2023/10/06 05:01:56;;;;;;;6.80;3.58;;;7.20;99.90;;;;;;6171549;28;20053;-76
2023/10/06 05:04:58;;;;;;;6.28;4.13;;;7.10;99.90;;;;;;6188140;28;20480;-76
2023/10/06 05:08:00;;;;;;;5.72;3.60;;;7.10;99.90;;;;;;6195912;28;20044;-76
2023/10/06 05:11:02;;;;;;;6.88;3.33;;;7.10;99.90;;;;;;6199457;28;20038;-76
2023/10/06 05:14:08;;;;;;;5.60;3.20;;;7.20;99.90;;;;;;6200900;28;20042;-76
2023/10/06 05:17:14;;;;;;;10.80;3.97;;;7.30;99.90;;;;;;6200224;28;20049;-76
2023/10/06 05:20:20;;;;;;;9.43;5.28;;;7.30;99.90;;;;;;6201262;28;20050;-76
2023/10/06 05:23:22;;;;;;;7.55;4.95;;;7.30;99.90;;;;;;6200065;28;20403;-76
2023/10/06 05:26:24;;;;;;;6.05;4.57;;;7.30;99.90;;;;;;6200251;28;20058;-76
2023/10/06 05:29:28;;;;;;;16.65;6.18;;;7.30;99.90;;;;;;6200562;28;20049;-76
2023/10/06 05:32:30;;;;;;;11.93;5.57;;;7.40;99.90;;;;;;6200967;28;20046;-76
2023/10/06 05:35:36;;;;;;;26.20;6.15;;;7.40;99.90;;;;;;6199943;28;20039;-76
2023/10/06 05:38:38;;;;;;;18.70;5.03;;;7.40;99.90;;;;;;6200365;28;20042;-76
2023/10/06 05:41:40;;;;;;;13.10;3.97;;;7.40;99.90;;;;;;6200302;28;20038;-76
2023/10/06 05:44:43;;;;;;;19.10;5.05;;;7.30;99.90;;;;;;6200100;28;20138;-76
2023/10/06 05:47:46;;;;;;;10.05;3.67;;;7.30;99.90;;;;;;6199922;28;20420;-76
2023/10/06 05:50:48;;;;;;;13.95;2.90;;;7.30;99.90;;;;;;6200130;28;20043;-76
2023/10/06 05:53:51;;;;;;;9.68;3.33;;;7.20;99.90;;;;;;6199317;28;20038;-76
2023/10/06 05:56:53;;;;;;;3.50;2.40;;;7.30;99.90;;;;;;6200194;28;20096;-76
2023/10/06 05:59:57;;;;;;;5.63;2.90;;;7.20;99.90;;;;;;6200321;28;20046;-76
2023/10/06 06:03:09;;;;;;;7.78;3.00;;;7.20;99.90;;;;;;6200679;28;20046;-76
2023/10/06 06:06:14;;;;;;;9.93;3.40;;;7.20;99.90;;;;;;6173876;28;20173;-76
2023/10/06 06:09:16;;;;;;;6.90;2.97;;;7.20;99.90;;;;;;6184115;28;20054;-76
2023/10/06 06:12:21;;;;;;;5.07;2.72;;;7.30;99.90;;;;;;6179770;28;20061;-76
2023/10/06 06:15:26;;;;;;;10.95;3.40;;;7.40;99.90;;;;;;6177552;28;20241;-76
2023/10/06 06:18:27;;;;;;;7.22;3.83;;;7.50;99.90;;;;;;6175326;28;20550;-76
2023/10/06 06:21:29;;;;;;;6.55;3.00;;;7.60;99.90;;;;;;6174629;28;20527;-76
2023/10/06 06:24:31;;;;;;;5.95;3.58;;;7.80;99.90;;;;;;6175877;28;20051;-76
2023/10/06 06:27:33;;;;;;;5.93;3.58;;;7.90;99.90;;;;;;6174314;28;20039;-76
2023/10/06 06:30:37;;;;;;;8.60;2.97;;;8.00;99.90;;;;;;6174955;28;20053;-76
2023/10/06 06:33:39;;;;;;;5.65;3.85;;;8.10;99.90;;;;;;6174820;28;20047;-76
2023/10/06 06:36:41;;;;;;;4.47;3.30;;;8.10;99.90;;;;;;6174731;28;20392;-76
2023/10/06 06:39:44;;;;;;;5.72;3.30;;;8.20;99.90;;;;;;6174828;28;20511;-76
2023/10/06 06:42:46;;;;;;;6.90;3.40;;;8.20;99.90;;;;;;6175892;28;20051;-76
2023/10/06 06:45:49;;;;;;;9.98;2.80;;;8.20;99.90;;;;;;6197525;28;20049;-76
2023/10/06 06:48:51;;;;;;;5.57;3.33;;;8.20;99.90;;;;;;6199806;28;20164;-76
2023/10/06 06:51:53;;;;;;;3.83;3.00;;;8.30;99.90;;;;;;6200032;28;20054;-76
2023/10/06 06:54:55;;;;;;;8.02;4.00;;;8.40;99.90;;;;;;6200075;28;20126;-75
2023/10/06 06:58:00;;;;;;;6.07;3.35;;;8.60;99.90;;;;;;6175110;28;20057;-76
2023/10/06 07:01:05;;;;;;;5.18;3.15;;;8.80;99.90;;;;;;6176148;28;20051;-76
2023/10/06 07:04:07;;;;;;;6.50;3.92;;;9.00;99.90;;;;;;6170275;28;20134;-76
2023/10/06 07:07:09;;;;;;;5.07;3.67;;;9.30;99.90;;;;;;6178651;28;20047;-77
2023/10/06 07:10:14;;;;;;;6.65;3.58;;;9.60;99.90;;;;;;6178858;28;20046;-77
2023/10/06 07:13:16;;;;;;;4.18;3.35;;;10.00;99.90;;;;;;6178998;28;20055;-77
2023/10/06 07:16:21;;;;;;;4.70;3.38;;;10.40;99.90;;;;;;6179542;28;20047;-77
2023/10/06 07:19:24;;;;;;;5.32;4.00;;;10.70;99.90;;;;;;6179357;28;20054;-77
2023/10/06 07:22:29;;;;;;;4.60;3.53;;;11.10;99.90;;;;;;6179425;28;20065;-77
2023/10/06 07:25:31;;;;;;;3.90;2.72;;;11.30;99.90;;;;;;6179567;28;20042;-77
2023/10/06 07:28:34;;;;;;;3.65;2.80;;;11.60;99.90;;;;;;6180558;28;20057;-77
2023/10/06 07:31:38;;;;;;;5.78;3.42;;;11.80;99.90;;;;;;6180908;28;20042;-77
2023/10/06 07:34:40;;;;;;;5.18;3.53;;;12.20;99.90;;;;;;6181628;28;20054;-76
2023/10/06 07:37:42;;;;;;;4.38;3.00;;;12.60;99.90;;;;;;6158009;28;20542;-77
2023/10/06 07:40:44;;;;;;;3.78;3.22;;;12.90;99.90;;;;;;6189857;28;20047;-77
2023/10/06 07:43:48;;;;;;;4.20;3.25;;;13.30;99.90;;;;;;6199333;28;20525;-76
2023/10/06 07:46:52;;;;;;;4.13;3.15;;;13.60;99.90;;;;;;6197983;28;20042;-76
2023/10/06 07:49:54;;;;;;;4.38;3.05;;;13.80;99.90;;;;;;6179185;28;20042;-77
2023/10/06 07:52:56;;;;;;;4.82;2.75;;;14.10;99.90;;;;;;6192705;28;20054;-77
2023/10/06 07:56:06;;;;;;;6.15;3.13;;;14.20;99.90;;;;;;6188664;28;20131;-76
2023/10/06 07:59:09;;;;;;;3.08;2.50;;;14.50;99.90;;;;;;6169179;28;20419;-77
2023/10/06 08:02:13;;;;;;;3.83;2.88;;;14.90;99.90;;;;;;6183290;28;20055;-76
2023/10/06 08:05:19;;;;;;;5.45;2.70;;;15.20;99.90;;;;;;6198470;28;20082;-77
2023/10/06 08:08:20;;;;;;;4.55;3.22;;;15.30;99.90;;;;;;6199558;28;20559;-76
2023/10/06 08:11:23;;;;;;;4.80;3.60;;;15.80;99.90;;;;;;6193316;28;20046;-77
2023/10/06 08:14:24;;;;;;;5.68;3.15;;;16.30;99.90;;;;;;6189190;28;20137;-75
2023/10/06 08:17:28;;;;;;;4.32;3.70;;;17.00;99.90;;;;;;6195667;28;20170;-75
2023/10/06 08:20:30;;;;;;;5.22;3.25;;;17.80;99.90;;;;;;6197618;28;20053;-74
2023/10/06 08:23:32;;;;;;;4.13;2.70;;;18.30;99.90;;;;;;6197124;28;20104;-75
2023/10/06 08:26:36;;;;;;;5.50;3.38;;;18.40;99.90;;;;;;6197188;28;20516;-74
2023/10/06 08:29:38;;;;;;;5.20;3.30;;;18.40;99.90;;;;;;6197251;28;20049;-75
2023/10/06 08:32:42;;;;;;;5.57;2.88;;;18.50;99.90;;;;;;6197865;28;20050;-75
2023/10/06 08:35:44;;;;;;;6.55;3.38;;;19.00;99.90;;;;;;6193231;28;20141;-74
2023/10/06 08:38:46;;;;;;;4.85;3.67;;;19.40;99.90;;;;;;6174448;28;20046;-75
2023/10/06 08:41:51;;;;;;;6.00;3.33;;;19.70;98.60;;;;;;6177399;28;20173;-76
2023/10/06 08:44:53;;;;;;;7.50;3.65;;;20.00;97.20;;;;;;6196364;28;20133;-75
2023/10/06 08:47:58;;;;;;;6.47;3.45;;;20.10;96.20;;;;;;6192287;28;20054;-75
2023/10/06 08:51:04;;;;;;;9.95;3.92;;;20.30;95.10;;;;;;6193924;28;20442;-74
2023/10/06 08:54:10;;;;;;;7.93;3.08;;;20.40;94.40;;;;;;6195674;28;20042;-75
2023/10/06 08:57:15;;;;;;;4.35;3.10;;;20.50;93.50;;;;;;6181465;28;20043;-75
2023/10/06 09:00:18;;;;;;;4.05;2.72;;;20.40;92.90;;;;;;6171025;28;20059;-75
2023/10/06 09:03:22;;;;;;;10.02;3.22;;;20.40;92.30;;;;;;6169903;28;20046;-75
2023/10/06 09:06:25;;;;;;;8.65;4.88;;;20.60;92.00;;;;;;6171598;28;20049;-74
2023/10/06 09:09:27;;;;;;;8.68;3.50;;;20.90;91.30;;;;;;6171116;28;20047;-76
2023/10/06 09:12:31;;;;;;;3.92;2.83;;;21.30;90.50;;;;;;6172361;28;20063;-75
2023/10/06 09:15:35;;;;;;;6.70;3.20;;;21.50;89.50;;;;;;6171606;28;20082;-75
2023/10/06 09:18:39;;;;;;;6.85;3.83;;;21.80;87.70;;;;;;6171914;28;20042;-74
2023/10/06 09:22:01;;;;;;;5.88;3.95;;;22.00;86.30;;;;;;6168117;28;20047;-75
2023/10/06 09:25:04;;;;;;;9.30;4.82;;;22.00;85.10;;;;;;6171661;28;20050;-74
2023/10/06 09:28:13;;;;;;;4.78;2.72;;;22.00;84.40;;;;;;6172540;28;20539;-74
2023/10/06 09:31:15;;;;;;;9.73;4.45;;;22.20;83.60;;;;;;6171851;28;20038;-74
2023/10/06 09:34:25;;;;;;;6.28;3.85;;;22.20;82.40;;;;;;6171587;28;20087;-74
2023/10/06 09:37:27;;;;;;;6.82;3.58;;;22.10;81.80;;;;;;6171379;28;20039;-75
2023/10/06 09:40:32;;;;;;;9.70;4.38;;;22.00;81.70;;;;;;6171813;28;20057;-75
2023/10/06 09:43:35;;;;;;;10.68;3.63;;;21.90;81.50;;;;;;6173931;28;20054;-75
2023/10/06 09:46:41;;;;;;;9.60;4.45;;;21.80;81.50;;;;;;6171043;28;20424;-75
2023/10/06 09:49:47;;;;;;;6.40;4.15;;;21.80;81.20;;;;;;6178613;28;20412;-74
2023/10/06 09:52:50;;;;;;;5.57;3.25;;;22.00;80.40;;;;;;6172041;28;20058;-75
2023/10/06 09:55:52;;;;;;;9.05;3.55;;;22.20;79.80;;;;;;6172581;28;20050;-76
2023/10/06 09:58:54;;;;;;;7.55;4.03;;;22.50;79.00;;;;;;6175990;28;20094;-75
2023/10/06 10:01:57;;;;;;;5.95;4.32;;;22.80;78.10;;;;;;6176101;28;20038;-75
2023/10/06 10:05:01;;;;;;;7.70;3.47;;;23.10;77.10;;;;;;6181075;28;20051;-76
2023/10/06 10:08:03;;;;;;;5.70;2.65;;;23.30;76.10;;;;;;6176240;28;20050;-75
2023/10/06 10:11:08;;;;;;;6.18;3.03;;;23.50;75.20;;;;;;6176945;28;20496;-77
2023/10/06 10:14:28;;;;;;;4.18;3.10;;;23.70;73.60;;;;;;6176015;28;20039;-77
2023/10/06 10:17:38;;;;;;;6.78;3.83;;;23.50;72.80;;;;;;6172407;28;20420;-75
2023/10/06 10:20:42;;;;;;;5.43;2.78;;;23.50;72.70;;;;;;6178911;28;20057;-77
2023/10/06 10:23:49;;;;;;;9.15;3.08;;;23.70;71.90;;;;;;6175717;28;20049;-76
2023/10/06 10:26:51;;;;;;;5.47;3.28;;;23.90;71.20;;;;;;6175361;28;20039;-77
2023/10/06 10:29:53;;;;;;;8.30;3.78;;;24.00;70.60;;;;;;6176703;28;20050;-77
2023/10/06 10:32:57;;;;;;;11.25;3.58;;;24.00;70.00;;;;;;6175495;28;20050;-76
2023/10/06 10:36:22;;;;;;;7.78;3.15;;;24.10;69.70;;;;;;6179996;28;20042;-76
2023/10/06 10:39:23;;;;;;;6.07;3.53;;;24.30;69.10;;;;;;6183654;28;20124;-76
2023/10/06 10:42:39;;;;;;;6.07;4.03;;;24.50;68.40;;;;;;6185923;28;20110;-76
2023/10/06 10:45:44;;;;;;;5.90;2.35;;;24.70;67.60;;;;;;6190451;28;20522;-77
2023/10/06 10:48:48;;;;;;;5.78;3.03;;;24.80;67.20;;;;;;6158010;28;20046;-75
2023/10/06 10:51:55;;;;;;;3.88;2.22;;;24.90;66.60;;;;;;6204880;23;20045;-84
2023/10/06 10:54:57;;;;;;;;;;;25.00;66.20;;;;;;6205652;28;20053;-82
2023/10/06 10:57:59;;;;;;;7.63;3.30;;;25.10;67.50;;;;;;6213274;28;19929;-81
2023/10/06 11:01:23;;;;;;;10.02;3.38;;;25.10;66.80;;;;;;6210543;28;20129;-81
2023/10/06 11:04:29;;;;;;;4.25;2.50;;;25.30;65.60;;;;;;6225585;28;20056;-83
2023/10/06 11:07:32;;;;;;;7.57;2.65;;;25.40;65.30;;;;;;6231264;28;20092;-83
2023/10/06 11:10:34;;;;;;;7.03;3.42;;;25.50;64.40;;;;;;6232299;28;20043;-82
2023/10/06 11:13:36;;;;;;;4.30;2.63;;;25.60;64.20;;;;;;6209850;28;20522;-82
2023/10/06 11:16:45;;;;;;;8.80;3.20;;;25.70;64.10;;;;;;6219891;28;20049;-79
2023/10/06 11:19:47;;;;;;;6.13;2.55;;;25.80;63.60;;;;;;6218801;28;20052;-81
2023/10/06 11:22:55;;;;;;;6.18;2.65;;;26.00;63.20;;;;;;6222262;28;20522;-81
2023/10/06 11:25:56;;;;;;;3.60;2.67;;;26.20;62.50;;;;;;6234523;28;20452;-80
2023/10/06 11:29:00;;;;;;;3.53;2.28;;;26.20;62.40;;;;;;6234231;28;20056;-82
2023/10/06 11:32:02;;;;;;;9.75;2.78;;;26.30;62.00;;;;;;6233177;28;20053;-82
2023/10/06 11:35:04;;;;;;;6.25;2.33;;;26.30;61.30;;;;;;6233816;28;20052;-79
2023/10/06 11:38:10;;;;;;;6.20;2.60;;;26.30;60.80;;;;;;6233234;28;20073;-81
2023/10/06 11:41:12;;;;;;;4.63;2.85;;;26.30;60.40;;;;;;6232709;28;20056;-82
2023/10/06 11:44:14;;;;;;;8.10;3.65;;;26.10;60.60;;;;;;6233130;28;20061;-82
2023/10/06 11:47:16;;;;;;;3.10;2.70;;;26.10;60.80;;;;;;6233846;28;20506;-80
2023/10/06 11:50:23;;;;;;;4.85;2.65;;;26.00;60.50;;;;;;6234145;28;20213;-81
2023/10/06 11:53:26;;;;;;;4.55;2.65;;;26.00;60.20;;;;;;6233623;28;20057;-81
2023/10/06 11:56:29;;;;;;;4.15;1.67;;;25.90;60.40;;;;;;6234480;28;20160;-82
2023/10/06 11:59:30;;;;;;;5.10;2.92;;;26.00;60.30;;;;;;6216478;28;20073;-81
2023/10/06 12:02:45;;;;;;;3.60;2.25;;;26.00;59.90;;;;;;6209965;28;20468;-82
2023/10/06 12:05:56;;;;;;;6.57;3.60;;;26.10;59.70;;;;;;6209174;28;20046;-80
2023/10/06 12:08:59;;;;;;;5.55;2.38;;;26.20;59.60;;;;;;6208669;28;20383;-82
2023/10/06 12:12:01;;;;;;;6.10;3.53;;;26.20;59.10;;;;;;6225869;28;20050;-82
2023/10/06 12:15:03;;;;;;;5.53;2.78;;;26.10;59.10;;;;;;6232963;28;20065;-80
2023/10/06 12:18:05;;;;;;;4.40;2.92;;;25.80;59.40;;;;;;6233235;28;20042;-81
2023/10/06 12:21:11;;;;;;;6.05;2.28;;;25.60;59.30;;;;;;6210630;28;20129;-79
2023/10/06 12:24:14;;;;;;;5.85;2.33;;;25.70;59.10;;;;;;6207714;28;20046;-81
2023/10/06 12:27:17;;;;;;;4.65;2.10;;;25.90;58.50;;;;;;6207489;28;20042;-80
2023/10/06 12:30:21;;;;;;;5.68;2.65;;;26.00;58.20;;;;;;6208277;28;20136;-80
2023/10/06 12:33:23;;;;;;;6.65;3.28;;;26.20;57.40;;;;;;6215135;28;20049;-80
2023/10/06 12:36:25;;;;;;;5.43;1.85;;;26.30;57.10;;;;;;6209428;28;20054;-80
2023/10/06 12:39:34;;;;;;;8.15;2.60;;;26.50;57.00;;;;;;6208996;28;20106;-81
2023/10/06 12:42:36;;;;;;;5.45;2.35;;;26.60;56.30;;;;;;6207187;28;20093;-80
2023/10/06 12:45:38;;;;;;;3.85;2.22;;;26.70;56.10;;;;;;6207696;28;20054;-79
2023/10/06 12:48:40;;;;;;;4.72;2.60;;;26.80;55.40;;;;;;6208509;28;20460;-79
2023/10/06 12:51:42;;;;;;;8.60;2.63;;;26.60;55.40;;;;;;6208980;28;20064;-80
2023/10/06 12:54:46;;;;;;;4.72;2.10;;;26.70;55.20;;;;;;6221630;28;20058;-81
2023/10/06 12:57:48;;;;;;;4.60;2.10;;;26.60;55.30;;;;;;6210620;28;20049;-81
2023/10/06 13:00:50;;;;;;;6.10;3.90;;;26.60;54.70;;;;;;6228614;28;20046;-82
2023/10/06 13:03:53;;;;;;;7.45;2.67;;;26.20;55.10;;;;;;6204246;28;20061;-81
2023/10/06 13:06:58;;;;;;;4.63;2.80;;;25.80;55.60;;;;;;6206020;28;20046;-80
2023/10/06 13:10:06;;;;;;;14.77;3.97;;;25.60;55.60;;;;;;6206072;28;20145;-80
2023/10/06 13:13:08;;;;;;;8.30;3.55;;;25.30;55.90;;;;;;6204805;28;20160;-80
2023/10/06 13:16:10;;;;;;;6.90;3.53;;;25.20;56.20;;;;;;6227198;28;20046;-80
2023/10/06 13:19:11;;;;;;;5.75;2.67;;;25.20;56.10;;;;;;6230563;28;20046;-80
2023/10/06 13:22:13;;;;;;;10.15;3.15;;;25.00;56.30;;;;;;6206423;28;20507;-85
2023/10/06 13:25:17;;;;;;;37.33;26.92;;;25.00;56.20;;;;;;6214707;28;20050;-83
2023/10/06 13:28:20;;;;;;;26.52;21.92;;;24.80;56.10;;;;;;6208393;28;20046;-82
2023/10/06 13:31:22;;;;;;;14.02;10.63;;;24.80;56.20;;;;;;6209634;28;20136;-82
2023/10/06 13:34:24;;;;;;;7.63;3.60;;;24.80;55.80;;;;;;6210634;28;20068;-81
2023/10/06 13:37:25;;;;;;;6.20;3.25;;;24.70;55.60;;;;;;6210628;28;20126;-80
2023/10/06 13:40:29;;;;;;;7.75;3.65;;;24.70;55.60;;;;;;6201222;28;20156;-81
2023/10/06 13:43:31;;;;;;;7.93;3.40;;;24.60;55.90;;;;;;6210794;28;20359;-82
2023/10/06 13:46:32;;;;;;;6.28;3.22;;;24.40;55.80;;;;;;6217430;28;20418;-81
2023/10/06 13:49:34;;;;;;;5.82;4.10;;;24.30;56.00;;;;;;6208277;28;20043;-82
2023/10/06 13:52:36;;;;;;;14.90;4.38;;;24.20;56.40;;;;;;6207362;28;20051;-80
2023/10/06 13:55:39;;;;;;;9.57;3.83;;;24.00;56.70;;;;;;6231842;28;20449;-80
2023/10/06 13:58:41;;;;;;;8.40;4.25;;;24.00;56.90;;;;;;6230028;28;20046;-81
2023/10/06 14:01:42;;;;;;;9.00;4.50;;;23.90;57.00;;;;;;6208290;28;20070;-79
2023/10/06 14:04:44;;;;;;;13.45;3.78;;;23.90;57.00;;;;;;6201493;28;20566;-78
2023/10/06 14:07:46;;;;;;;7.78;3.83;;;24.00;57.20;;;;;;6202759;28;20064;-78
2023/10/06 14:10:50;;;;;;;11.15;5.05;;;24.00;57.40;;;;;;6220747;28;20049;-78
2023/10/06 14:13:56;;;;;;;9.43;4.90;;;24.00;57.20;;;;;;6212853;28;20085;-78
2023/10/06 14:16:58;;;;;;;9.57;3.85;;;23.80;57.40;;;;;;6216566;28;20049;-76
2023/10/06 14:20:00;;;;;;;9.00;4.07;;;23.60;57.70;;;;;;6206646;28;20495;-78
2023/10/06 14:23:03;;;;;;;9.93;4.75;;;23.50;57.70;;;;;;6216634;28;20038;-79
2023/10/06 14:26:10;;;;;;;13.35;6.30;;;23.30;57.70;;;;;;6223100;28;20042;-78
2023/10/06 14:29:11;;;;;;;10.75;6.15;;;23.10;57.50;;;;;;6215435;28;20514;-78
2023/10/06 14:32:18;;;;;;;8.82;5.05;;;22.80;57.70;;;;;;6217717;28;20570;-78
2023/10/06 14:35:31;;;;;;;10.90;6.93;;;22.60;58.50;;;;;;6223778;28;20121;-77
2023/10/06 14:48:33;;;;;;;9.40;5.88;;;21.90;59.60;;;;;;6213340;28;20053;-81
2023/10/06 14:51:35;;;;;;;10.20;4.70;;;21.80;59.70;;;;;;6201275;28;20050;-78
2023/10/06 14:54:38;;;;;;;9.43;5.45;;;21.70;60.00;;;;;;6207548;28;20046;-77
2023/10/06 14:57:41;;;;;;;12.70;5.32;;;21.60;60.10;;;;;;6200755;28;20046;-80
2023/10/06 15:00:43;;;;;;;10.38;4.43;;;21.60;60.80;;;;;;6208604;28;20137;-79
2023/10/06 15:03:46;;;;;;;17.20;6.88;;;21.50;61.00;;;;;;6207950;28;20503;-79
2023/10/06 15:06:48;;;;;;;9.13;5.00;;;21.40;61.00;;;;;;6200440;28;20088;-77
2023/10/06 15:09:51;;;;;;;12.52;5.57;;;21.20;61.30;;;;;;6209359;28;20122;-78
2023/10/06 15:12:58;;;;;;;12.23;5.60;;;21.10;61.70;;;;;;6209706;28;20056;-78
2023/10/06 15:16:02;;;;;;;12.37;5.53;;;20.90;61.80;;;;;;6205760;28;20173;-77
2023/10/06 15:19:05;;;;;;;11.98;5.13;;;20.80;62.30;;;;;;6205713;28;20293;-78
2023/10/06 15:22:08;;;;;;;11.60;5.25;;;20.70;62.60;;;;;;6206006;28;20186;-79
2023/10/06 15:25:13;;;;;;;15.45;6.07;;;20.60;62.70;;;;;;6210955;28;20049;-78
2023/10/06 15:28:16;;;;;;;11.50;5.72;;;20.50;63.10;;;;;;6206714;28;20041;-79
2023/10/06 15:31:18;;;;;;;13.50;5.60;;;20.40;63.50;;;;;;6213855;28;20430;-79
2023/10/06 15:34:20;;;;;;;11.73;5.13;;;20.30;64.10;;;;;;6213293;28;20056;-78
2023/10/06 15:37:22;;;;;;;14.13;5.03;;;20.10;64.60;;;;;;6215242;28;20050;-78
2023/10/06 15:40:23;;;;;;;12.60;5.43;;;20.00;65.00;;;;;;6209819;28;20427;-77
2023/10/06 15:43:27;;;;;;;15.00;6.68;;;19.80;65.30;;;;;;6199902;28;20056;-78
2023/10/06 15:46:29;;;;;;;11.98;5.65;;;19.70;65.90;;;;;;6182574;28;20050;-78
2023/10/06 15:49:32;;;;;;;9.60;5.45;;;19.50;66.30;;;;;;6190626;28;20057;-77
2023/10/06 15:52:33;;;;;;;13.27;4.60;;;19.40;66.80;;;;;;6169165;28;20050;-79
2023/10/06 15:55:38;;;;;;;10.35;5.75;;;19.30;67.20;;;;;;6185052;28;20064;-79
2023/10/06 15:58:42;;;;;;;12.38;5.88;;;19.10;67.80;;;;;;6200478;28;20038;-78
2023/10/06 16:01:47;;;;;;;9.00;5.50;;;19.00;68.80;;;;;;6195213;28;20043;-78
2023/10/06 16:04:50;;;;;;;11.63;4.95;;;18.80;69.30;;;;;;6191678;28;20055;-78
2023/10/06 16:07:52;;;;;;;11.52;4.90;;;18.60;70.00;;;;;;6188350;28;20046;-78
2023/10/06 16:10:59;;;;;;;11.73;5.00;;;18.50;70.70;;;;;;6200166;28;20057;-79